Time;durP1;ratioP1;P1;durP2;ratioP2;P2;SDS_P1;SDS_P2;PMS_P1;PMS_P2;Temp;Humidity;BMP_temperature;BMP_pressure;BME280_temperature;BME280_humidity;BME280_pressure;Samples;Min_cycle;Max_cycle;Signal;HPM_P1;HPM_P2
2022/12/20 00:01:07;;;;;;;17.10;10.47;;;;;;;;;;5095331;28;20222;-71
2022/12/20 00:03:33;;;;;;;11.97;7.43;;;;;;;;;;5095440;28;20185;-71
2022/12/20 00:05:59;;;;;;;9.53;5.70;;;;;;;;;;5095238;28;20182;-71
2022/12/20 00:08:25;;;;;;;8.67;5.67;;;;;;;;;;5093454;28;20184;-71
2022/12/20 00:10:51;;;;;;;12.47;8.73;;;;;;;;;;5096766;28;20207;-70
2022/12/20 00:13:17;;;;;;;14.03;8.03;;;;;;;;;;5095540;28;20173;-71
2022/12/20 00:15:43;;;;;;;14.50;7.23;;;;;;;;;;5094153;28;20570;-71
2022/12/20 00:18:09;;;;;;;8.33;6.27;;;;;;;;;;5093276;28;20649;-71
2022/12/20 00:20:35;;;;;;;9.50;5.27;;;;;;;;;;5094612;28;20200;-71
2022/12/20 00:23:01;;;;;;;11.60;5.07;;;;;;;;;;5094572;28;20230;-71
2022/12/20 00:25:28;;;;;;;7.03;4.77;;;;;;;;;;5095199;28;20260;-71
2022/12/20 00:27:54;;;;;;;7.23;4.70;;;;;;;;;;5094756;28;20177;-71
2022/12/20 00:30:20;;;;;;;6.80;4.47;;;;;;;;;;5094200;28;20207;-71
2022/12/20 00:32:46;;;;;;;9.43;4.17;;;;;;;;;;5094002;28;20271;-71
2022/12/20 00:35:12;;;;;;;8.80;4.10;;;;;;;;;;5116659;23;20316;-68
2022/12/20 00:37:39;;;;;;;6.00;3.90;;;;;;;;;;5093677;28;20253;-69
2022/12/20 00:40:05;;;;;;;6.60;4.67;;;;;;;;;;5093521;28;20637;-68
2022/12/20 00:42:32;;;;;;;10.13;5.10;;;;;;;;;;5093013;28;20209;-67
2022/12/20 00:44:58;;;;;;;8.03;5.23;;;;;;;;;;5093158;28;20279;-67
2022/12/20 00:47:23;;;;;;;9.30;4.70;;;;;;;;;;5075033;28;20722;-68
2022/12/20 00:49:49;;;;;;;6.07;4.37;;;;;;;;;;5093117;28;20197;-67
2022/12/20 00:52:15;;;;;;;9.70;5.73;;;;;;;;;;5093195;28;20169;-67
2022/12/20 00:54:41;;;;;;;10.43;5.63;;;;;;;;;;5092870;28;20225;-68
2022/12/20 00:57:07;;;;;;;10.03;5.93;;;;;;;;;;5078469;28;20177;-68
2022/12/20 00:59:33;;;;;;;10.43;5.60;;;;;;;;;;5078727;28;20191;-68
2022/12/20 01:01:59;;;;;;;9.80;5.57;;;;;;;;;;5096762;28;20556;-68
2022/12/20 01:04:25;;;;;;;7.67;4.87;;;;;;;;;;5096630;28;20225;-67
2022/12/20 01:06:51;;;;;;;11.23;4.97;;;;;;;;;;5096540;28;20169;-68
2022/12/20 01:09:17;;;;;;;9.90;5.07;;;;;;;;;;5078317;28;20201;-68
2022/12/20 01:11:43;;;;;;;7.33;4.90;;;;;;;;;;5096835;28;20181;-68
2022/12/20 01:14:13;;;;;;;8.60;4.97;;;;;;;;;;5096530;28;20179;-68
2022/12/20 01:16:43;;;;;;;12.73;5.10;;;;;;;;;;5096460;28;20173;-68
2022/12/20 01:19:14;;;;;;;8.63;5.03;;;;;;;;;;5078211;28;20277;-68
2022/12/20 01:21:43;;;;;;;9.50;5.40;;;;;;;;;;5079769;28;20180;-68
2022/12/20 01:24:10;;;;;;;12.50;6.80;;;;;;;;;;5096387;28;20198;-68
2022/12/20 01:26:35;;;;;;;11.93;7.33;;;;;;;;;;5096256;28;20189;-68
2022/12/20 01:29:01;;;;;;;20.97;10.50;;;;;;;;;;5096049;28;20197;-67
2022/12/20 01:31:28;;;;;;;19.53;10.67;;;;;;;;;;5096530;28;20576;-67
2022/12/20 01:33:54;;;;;;;16.33;9.77;;;;;;;;;;5096331;28;20655;-67
2022/12/20 01:36:25;;;;;;;15.30;9.57;;;;;;;;;;5078088;28;20335;-67
2022/12/20 01:38:51;;;;;;;15.87;8.90;;;;;;;;;;5096596;28;20625;-68
2022/12/20 01:41:18;;;;;;;14.70;8.17;;;;;;;;;;5097210;28;20255;-67
2022/12/20 01:43:47;;;;;;;13.33;7.50;;;;;;;;;;5096791;28;20251;-68
2022/12/20 01:46:13;;;;;;;14.17;7.47;;;;;;;;;;5096789;28;20201;-68
2022/12/20 01:48:40;;;;;;;11.50;7.30;;;;;;;;;;5097110;28;20204;-68
2022/12/20 01:51:06;;;;;;;10.57;7.13;;;;;;;;;;5095970;28;20177;-68
2022/12/20 01:53:32;;;;;;;13.03;7.97;;;;;;;;;;5077613;28;20649;-68
2022/12/20 01:56:03;;;;;;;10.50;7.13;;;;;;;;;;5095630;28;20221;-67
2022/12/20 01:58:29;;;;;;;11.43;6.60;;;;;;;;;;5095544;28;20676;-68
2022/12/20 02:00:55;;;;;;;8.70;6.07;;;;;;;;;;5077364;28;20600;-68
2022/12/20 02:03:22;;;;;;;10.77;6.53;;;;;;;;;;5095407;28;20173;-68
2022/12/20 02:05:48;;;;;;;8.60;6.00;;;;;;;;;;5077263;28;20280;-68
2022/12/20 02:08:16;;;;;;;9.60;7.03;;;;;;;;;;5094668;28;20205;-68
2022/12/20 02:10:51;;;;;;;10.80;6.53;;;;;;;;;;5095592;28;20184;-69
2022/12/20 02:13:23;;;;;;;14.50;7.93;;;;;;;;;;5079676;28;20559;-68
2022/12/20 02:15:53;;;;;;;15.63;8.03;;;;;;;;;;5077050;28;20649;-69
2022/12/20 02:18:25;;;;;;;15.20;8.57;;;;;;;;;;5077383;28;20173;-68
2022/12/20 02:20:59;;;;;;;15.07;8.77;;;;;;;;;;5077110;28;20184;-69
2022/12/20 02:23:28;;;;;;;16.60;8.50;;;;;;;;;;5095567;28;20161;-69
2022/12/20 02:26:07;;;;;;;16.27;8.37;;;;;;;;;;5094931;28;20245;-69
2022/12/20 02:28:41;;;;;;;15.80;8.13;;;;;;;;;;5095455;28;20157;-69
2022/12/20 02:31:10;;;;;;;13.40;7.73;;;;;;;;;;5076792;28;20607;-68
2022/12/20 02:33:37;;;;;;;12.17;7.20;;;;;;;;;;5094981;28;20227;-69
2022/12/20 02:36:04;;;;;;;12.87;7.53;;;;;;;;;;5076424;28;20631;-68
2022/12/20 02:38:31;;;;;;;13.07;8.37;;;;;;;;;;5094900;28;20542;-68
2022/12/20 02:41:01;;;;;;;17.67;9.50;;;;;;;;;;5076621;28;20549;-68
2022/12/20 02:46:13;;;;;;;20.53;11.17;;;;;;;;;;5095012;28;20265;-69
2022/12/20 02:48:40;;;;;;;17.23;10.63;;;;;;;;;;5094647;28;20239;-68
2022/12/20 02:51:08;;;;;;;16.97;9.03;;;;;;;;;;5076449;28;20181;-68
2022/12/20 02:53:35;;;;;;;16.20;9.00;;;;;;;;;;5094535;28;20173;-69
2022/12/20 02:56:14;;;;;;;15.97;8.63;;;;;;;;;;5076398;28;20251;-68
2022/12/20 02:58:47;;;;;;;10.77;7.57;;;;;;;;;;5094962;28;20185;-68
2022/12/20 03:01:17;;;;;;;13.53;7.87;;;;;;;;;;5094599;28;20169;-68
2022/12/20 03:03:43;;;;;;;14.93;8.40;;;;;;;;;;5094927;28;20185;-68
2022/12/20 03:06:09;;;;;;;14.37;7.70;;;;;;;;;;5096092;28;20188;-68
2022/12/20 03:08:35;;;;;;;13.50;8.00;;;;;;;;;;5094441;28;20215;-68
2022/12/20 03:11:01;;;;;;;14.17;8.37;;;;;;;;;;5094212;28;20165;-69
2022/12/20 03:13:27;;;;;;;17.60;9.00;;;;;;;;;;5076018;28;20177;-68
2022/12/20 03:15:53;;;;;;;15.90;9.00;;;;;;;;;;5094180;28;20196;-69
2022/12/20 03:18:19;;;;;;;15.07;9.13;;;;;;;;;;5075679;28;20182;-68
2022/12/20 03:20:45;;;;;;;17.13;9.50;;;;;;;;;;5094142;28;20660;-68
2022/12/20 03:23:11;;;;;;;15.77;10.90;;;;;;;;;;5094051;28;20179;-68
2022/12/20 03:25:37;;;;;;;17.07;10.30;;;;;;;;;;5094679;28;20246;-68
2022/12/20 03:28:03;;;;;;;13.83;9.17;;;;;;;;;;5094078;28;20185;-69
2022/12/20 03:30:29;;;;;;;11.93;7.47;;;;;;;;;;5093949;28;20213;-69
2022/12/20 03:32:55;;;;;;;10.03;6.30;;;;;;;;;;5094062;28;20264;-68
2022/12/20 03:35:21;;;;;;;7.57;5.70;;;;;;;;;;5093581;28;20213;-69
2022/12/20 03:37:46;;;;;;;8.83;6.07;;;;;;;;;;5094119;28;20208;-68
2022/12/20 03:40:13;;;;;;;11.67;5.53;;;;;;;;;;5076289;28;20196;-69
2022/12/20 03:42:39;;;;;;;8.20;4.90;;;;;;;;;;5093741;28;20173;-68
2022/12/20 03:45:05;;;;;;;5.87;4.57;;;;;;;;;;5075421;28;20205;-69
2022/12/20 03:47:31;;;;;;;7.37;5.13;;;;;;;;;;5093769;28;20178;-68
2022/12/20 03:49:57;;;;;;;5.50;4.70;;;;;;;;;;5093791;28;20200;-68
2022/12/20 03:52:23;;;;;;;6.10;5.50;;;;;;;;;;5093553;28;20354;-68
2022/12/20 03:54:49;;;;;;;7.20;4.97;;;;;;;;;;5075415;28;20251;-68
2022/12/20 03:57:15;;;;;;;6.67;5.30;;;;;;;;;;5079013;28;20548;-68
2022/12/20 03:59:42;;;;;;;6.00;5.30;;;;;;;;;;5094464;28;20252;-69
2022/12/20 04:02:08;;;;;;;10.67;5.77;;;;;;;;;;5076710;28;20181;-68
2022/12/20 04:04:34;;;;;;;6.40;5.47;;;;;;;;;;5094665;28;20372;-67
2022/12/20 04:07:00;;;;;;;8.13;6.23;;;;;;;;;;5076734;28;20695;-67
2022/12/20 04:09:26;;;;;;;7.77;6.10;;;;;;;;;;5075527;28;20591;-67
2022/12/20 04:11:52;;;;;;;8.03;6.20;;;;;;;;;;5075557;28;20177;-69
2022/12/20 04:14:18;;;;;;;8.27;5.97;;;;;;;;;;5075357;28;20541;-69
2022/12/20 04:16:44;;;;;;;7.60;6.20;;;;;;;;;;5093424;28;20179;-68
2022/12/20 04:19:10;;;;;;;8.70;5.77;;;;;;;;;;5093851;28;20173;-68
2022/12/20 04:21:36;;;;;;;8.90;6.50;;;;;;;;;;5075170;28;20180;-68
2022/12/20 04:24:03;;;;;;;10.23;6.47;;;;;;;;;;5075263;28;20271;-69
2022/12/20 04:26:29;;;;;;;10.00;6.73;;;;;;;;;;5075237;28;20657;-68
2022/12/20 04:28:55;;;;;;;9.20;6.23;;;;;;;;;;5074977;28;20239;-68
2022/12/20 04:31:21;;;;;;;8.77;6.20;;;;;;;;;;5095927;28;20169;-69
2022/12/20 04:33:47;;;;;;;6.70;6.00;;;;;;;;;;5079892;28;20177;-68
2022/12/20 04:36:14;;;;;;;6.40;5.80;;;;;;;;;;5078835;28;20220;-68
2022/12/20 04:38:40;;;;;;;8.83;6.50;;;;;;;;;;5097282;28;20246;-68
2022/12/20 04:41:06;;;;;;;10.77;7.07;;;;;;;;;;5097472;28;20585;-69
2022/12/20 04:43:32;;;;;;;10.60;7.20;;;;;;;;;;5096941;28;20255;-68
2022/12/20 04:45:58;;;;;;;10.13;7.03;;;;;;;;;;5078765;28;20228;-69
2022/12/20 04:48:28;;;;;;;10.80;6.77;;;;;;;;;;5080160;28;20180;-68
2022/12/20 04:50:55;;;;;;;8.47;6.43;;;;;;;;;;5097520;28;20629;-68
2022/12/20 04:56:06;;;;;;;9.23;7.57;;;;;;;;;;5097018;28;20215;-69
2022/12/20 04:58:32;;;;;;;13.30;7.80;;;;;;;;;;5097061;28;20180;-68
2022/12/20 05:00:58;;;;;;;8.67;7.70;;;;;;;;;;5096661;28;20523;-69
2022/12/20 05:03:25;;;;;;;13.93;7.73;;;;;;;;;;5096985;28;20201;-68
2022/12/20 05:05:51;;;;;;;11.53;7.50;;;;;;;;;;5096401;28;20193;-69
2022/12/20 05:08:17;;;;;;;9.63;7.17;;;;;;;;;;5078433;28;20660;-69
2022/12/20 05:10:43;;;;;;;9.60;7.93;;;;;;;;;;5078412;28;20270;-68
2022/12/20 05:13:09;;;;;;;9.47;7.17;;;;;;;;;;5097077;28;20173;-68
2022/12/20 05:15:35;;;;;;;11.83;7.53;;;;;;;;;;5078315;28;20197;-68
2022/12/20 05:18:02;;;;;;;9.03;7.47;;;;;;;;;;5078180;28;20181;-68
2022/12/20 05:20:31;;;;;;;10.40;7.50;;;;;;;;;;5078402;28;20185;-68
2022/12/20 05:28:29;;;;;;;10.90;7.57;;;;;;;;;;5096719;28;20528;-68
2022/12/20 05:30:55;;;;;;;10.10;7.17;;;;;;;;;;5096250;28;20226;-69
2022/12/20 05:33:21;;;;;;;11.00;7.77;;;;;;;;;;5096159;28;20636;-69
2022/12/20 05:35:47;;;;;;;11.27;7.80;;;;;;;;;;5077670;28;20216;-69
2022/12/20 05:38:13;;;;;;;9.93;7.70;;;;;;;;;;5077945;28;20242;-68
2022/12/20 05:40:39;;;;;;;9.67;7.83;;;;;;;;;;5096980;28;20181;-68
2022/12/20 05:43:05;;;;;;;11.03;8.53;;;;;;;;;;5095412;28;20177;-68
2022/12/20 05:45:31;;;;;;;12.40;8.53;;;;;;;;;;5078358;28;20215;-70
2022/12/20 05:47:58;;;;;;;9.93;8.13;;;;;;;;;;5096061;28;20212;-69
2022/12/20 05:50:23;;;;;;;9.77;8.07;;;;;;;;;;5078022;28;20228;-69
2022/12/20 05:52:49;;;;;;;11.13;8.03;;;;;;;;;;5077913;28;20213;-69
2022/12/20 05:55:15;;;;;;;9.43;7.57;;;;;;;;;;5096053;28;20196;-69
2022/12/20 05:57:41;;;;;;;11.50;7.23;;;;;;;;;;5077707;28;20180;-70
2022/12/20 06:00:08;;;;;;;10.03;7.57;;;;;;;;;;5077744;28;20173;-70
2022/12/20 06:02:34;;;;;;;11.00;7.60;;;;;;;;;;5095908;28;20256;-71
2022/12/20 06:05:00;;;;;;;9.97;7.50;;;;;;;;;;5095661;28;20228;-69
2022/12/20 06:07:27;;;;;;;12.73;7.77;;;;;;;;;;5095687;28;20252;-69
2022/12/20 06:09:53;;;;;;;8.17;7.07;;;;;;;;;;5095951;28;20292;-69
2022/12/20 06:12:19;;;;;;;8.63;6.90;;;;;;;;;;5095510;28;20173;-70
2022/12/20 06:14:45;;;;;;;8.97;7.07;;;;;;;;;;5095486;28;20200;-70
2022/12/20 06:17:11;;;;;;;11.23;7.33;;;;;;;;;;5077538;28;20318;-69
2022/12/20 06:19:40;;;;;;;11.13;7.57;;;;;;;;;;5077322;28;20188;-69
2022/12/20 06:22:06;;;;;;;10.90;7.37;;;;;;;;;;5095245;28;20641;-69
2022/12/20 06:24:32;;;;;;;12.10;6.97;;;;;;;;;;5095482;28;20292;-68
2022/12/20 06:26:58;;;;;;;10.23;7.40;;;;;;;;;;5095360;28;20175;-69
2022/12/20 06:29:24;;;;;;;9.00;6.53;;;;;;;;;;5095126;28;20197;-71
2022/12/20 06:31:50;;;;;;;10.67;6.37;;;;;;;;;;5078920;28;20184;-69
2022/12/20 06:34:16;;;;;;;9.63;6.50;;;;;;;;;;5094936;28;20641;-69
2022/12/20 06:36:42;;;;;;;9.80;6.53;;;;;;;;;;5095133;28;20581;-69
2022/12/20 06:39:08;;;;;;;12.20;6.33;;;;;;;;;;5076429;28;20215;-70
2022/12/20 06:41:34;;;;;;;11.43;7.07;;;;;;;;;;5094869;28;20177;-69
2022/12/20 06:44:00;;;;;;;10.23;7.23;;;;;;;;;;5094542;28;20323;-69
2022/12/20 06:46:26;;;;;;;7.97;6.37;;;;;;;;;;5094552;28;20268;-69
2022/12/20 06:48:52;;;;;;;10.63;6.23;;;;;;;;;;5094486;28;20672;-69
2022/12/20 06:51:18;;;;;;;11.03;6.80;;;;;;;;;;5094810;28;20177;-70
2022/12/20 06:53:44;;;;;;;11.70;6.73;;;;;;;;;;5076113;28;20645;-69
2022/12/20 06:56:10;;;;;;;7.70;6.17;;;;;;;;;;5076418;28;20280;-69
2022/12/20 06:58:36;;;;;;;18.43;15.53;;;;;;;;;;5094898;28;20205;-69
2022/12/20 07:01:02;;;;;;;8.27;5.80;;;;;;;;;;5076171;28;20169;-68
2022/12/20 07:03:28;;;;;;;7.33;5.13;;;;;;;;;;5094362;28;20180;-70
2022/12/20 07:05:54;;;;;;;6.43;5.67;;;;;;;;;;5094310;28;20222;-69
2022/12/20 07:08:24;;;;;;;7.03;5.07;;;;;;;;;;5075993;28;20206;-69
2022/12/20 07:10:51;;;;;;;8.83;5.50;;;;;;;;;;5075949;28;20181;-69
2022/12/20 07:13:17;;;;;;;7.73;5.77;;;;;;;;;;5076106;28;20191;-69
2022/12/20 07:15:43;;;;;;;8.77;5.53;;;;;;;;;;5094002;28;20231;-69
2022/12/20 07:18:09;;;;;;;9.53;5.33;;;;;;;;;;5075797;28;20181;-69
2022/12/20 07:20:36;;;;;;;7.70;5.73;;;;;;;;;;5075819;28;20177;-67
2022/12/20 07:23:02;;;;;;;5.83;5.23;;;;;;;;;;5094440;28;20227;-70
2022/12/20 07:25:28;;;;;;;9.73;5.77;;;;;;;;;;5076935;28;20598;-69
2022/12/20 07:27:54;;;;;;;6.97;5.67;;;;;;;;;;5093883;28;20196;-69
2022/12/20 07:30:20;;;;;;;6.77;5.60;;;;;;;;;;5075573;28;20204;-69
2022/12/20 07:32:47;;;;;;;7.87;5.43;;;;;;;;;;5093554;28;20173;-70
2022/12/20 07:35:13;;;;;;;10.23;5.20;;;;;;;;;;5093471;28;20217;-69
2022/12/20 07:37:40;;;;;;;9.87;5.17;;;;;;;;;;5075506;28;20183;-69
2022/12/20 07:40:07;;;;;;;6.87;4.80;;;;;;;;;;5093921;28;20192;-70
2022/12/20 07:42:33;;;;;;;6.50;4.83;;;;;;;;;;5094053;28;20536;-70
2022/12/20 07:44:59;;;;;;;8.43;5.00;;;;;;;;;;5093456;28;20197;-70
2022/12/20 07:47:25;;;;;;;9.10;4.70;;;;;;;;;;5094032;28;20187;-69
2022/12/20 07:49:51;;;;;;;9.07;5.13;;;;;;;;;;5093493;28;20201;-70
2022/12/20 07:52:19;;;;;;;10.53;5.30;;;;;;;;;;5093692;28;20216;-69
2022/12/20 07:54:50;;;;;;;8.60;5.00;;;;;;;;;;5075156;28;20201;-68
2022/12/20 07:57:21;;;;;;;7.47;4.90;;;;;;;;;;5075604;28;20617;-70
2022/12/20 07:59:49;;;;;;;7.53;4.37;;;;;;;;;;5093872;28;20609;-70
2022/12/20 08:02:18;;;;;;;9.03;4.63;;;;;;;;;;5093688;28;20637;-69
2022/12/20 08:04:44;;;;;;;6.03;4.97;;;;;;;;;;5074833;28;20575;-69
2022/12/20 08:07:11;;;;;;;8.80;5.47;;;;;;;;;;5093244;28;20173;-69
2022/12/20 08:09:39;;;;;;;9.77;4.93;;;;;;;;;;5074974;28;20729;-69
2022/12/20 08:12:07;;;;;;;10.13;5.27;;;;;;;;;;5075083;28;20188;-71
2022/12/20 08:14:33;;;;;;;9.00;5.37;;;;;;;;;;5101593;22;20233;-75
2022/12/20 08:16:59;;;;;;;8.10;4.87;;;;;;;;;;5095490;28;20264;-75
2022/12/20 08:19:25;;;;;;;9.57;5.13;;;;;;;;;;5093321;28;20250;-75
2022/12/20 08:21:51;;;;;;;9.50;5.50;;;;;;;;;;5094594;28;20181;-75
2022/12/20 08:24:17;;;;;;;6.97;4.40;;;;;;;;;;5093531;28;20208;-75
2022/12/20 08:26:43;;;;;;;8.20;5.03;;;;;;;;;;5095046;28;20608;-75
2022/12/20 08:29:09;;;;;;;8.17;4.80;;;;;;;;;;5095083;28;20677;-76
2022/12/20 08:31:38;;;;;;;6.20;4.60;;;;;;;;;;5095360;28;20212;-75
2022/12/20 08:34:05;;;;;;;6.40;4.43;;;;;;;;;;5093848;28;20612;-74
2022/12/20 08:36:31;;;;;;;10.83;4.70;;;;;;;;;;5093577;28;20173;-75
2022/12/20 08:38:56;;;;;;;6.13;4.87;;;;;;;;;;5093720;28;20181;-72
2022/12/20 08:41:23;;;;;;;8.13;5.00;;;;;;;;;;5093279;28;20230;-71
2022/12/20 08:43:48;;;;;;;7.10;5.13;;;;;;;;;;5093470;28;20185;-71
2022/12/20 08:46:15;;;;;;;12.73;4.83;;;;;;;;;;5093321;28;20706;-70
2022/12/20 08:48:40;;;;;;;7.80;4.97;;;;;;;;;;5095326;28;20217;-71
2022/12/20 08:51:08;;;;;;;10.37;4.73;;;;;;;;;;5094349;28;20250;-71
2022/12/20 08:53:35;;;;;;;9.83;4.80;;;;;;;;;;5094391;28;20169;-72
2022/12/20 08:56:07;;;;;;;7.23;5.17;;;;;;;;;;5095088;28;20205;-72
2022/12/20 08:58:33;;;;;;;8.73;5.07;;;;;;;;;;5095061;28;20184;-72
2022/12/20 09:00:59;;;;;;;7.07;4.53;;;;;;;;;;5093972;28;20196;-72
2022/12/20 09:03:25;;;;;;;8.33;4.63;;;;;;;;;;5095032;28;20205;-71
2022/12/20 09:05:51;;;;;;;9.37;4.63;;;;;;;;;;5093194;28;20201;-72
2022/12/20 09:08:17;;;;;;;9.90;5.77;;;;;;;;;;5092985;28;20216;-71
2022/12/20 09:10:43;;;;;;;8.77;5.20;;;;;;;;;;5094007;28;20201;-71
2022/12/20 09:13:10;;;;;;;11.17;5.77;;;;;;;;;;5093937;28;20173;-72
2022/12/20 09:15:36;;;;;;;10.60;4.70;;;;;;;;;;5092399;28;20248;-70
2022/12/20 09:18:02;;;;;;;6.63;5.17;;;;;;;;;;5094975;28;20582;-72
2022/12/20 09:20:29;;;;;;;10.13;5.30;;;;;;;;;;5098142;28;20645;-71
2022/12/20 09:22:56;;;;;;;9.20;5.20;;;;;;;;;;5096821;28;20767;-72
2022/12/20 09:25:22;;;;;;;13.23;5.83;;;;;;;;;;5098164;28;20193;-72
2022/12/20 09:27:48;;;;;;;10.30;7.33;;;;;;;;;;5097863;28;20185;-72
2022/12/20 09:30:13;;;;;;;12.90;7.90;;;;;;;;;;5096273;28;20205;-73
2022/12/20 09:32:39;;;;;;;12.47;8.07;;;;;;;;;;5097898;28;20184;-74
2022/12/20 09:35:06;;;;;;;12.93;8.50;;;;;;;;;;5096389;28;20199;-71
2022/12/20 09:37:32;;;;;;;13.13;7.27;;;;;;;;;;5096877;28;20184;-72
2022/12/20 09:39:58;;;;;;;10.37;6.60;;;;;;;;;;5096790;28;20181;-72
2022/12/20 09:42:26;;;;;;;11.57;6.20;;;;;;;;;;5095902;28;20185;-72
2022/12/20 09:44:53;;;;;;;11.47;5.43;;;;;;;;;;5095630;28;20249;-72
2022/12/20 09:47:20;;;;;;;8.73;5.30;;;;;;;;;;5095395;28;20227;-72
2022/12/20 09:49:48;;;;;;;7.87;5.00;;;;;;;;;;5097332;28;20212;-70
2022/12/20 09:52:14;;;;;;;10.07;5.20;;;;;;;;;;5096801;28;20667;-69
2022/12/20 09:55:01;;;;;;;9.80;5.70;;;;;;;;;;5096278;28;20217;-69
2022/12/20 09:57:39;;;;;;;8.30;5.73;;;;;;;;;;5096826;28;20197;-70
2022/12/20 10:00:13;;;;;;;12.00;5.63;;;;;;;;;;5095080;28;20173;-69
2022/12/20 10:02:39;;;;;;;11.97;5.33;;;;;;;;;;5095112;28;20558;-70
2022/12/20 10:05:06;;;;;;;7.27;5.30;;;;;;;;;;5096111;28;20197;-70
2022/12/20 10:07:39;;;;;;;7.17;5.20;;;;;;;;;;5094115;28;20200;-70
2022/12/20 10:10:24;;;;;;;6.73;5.50;;;;;;;;;;5094255;28;20661;-70
2022/12/20 10:13:01;;;;;;;6.77;5.27;;;;;;;;;;5095701;28;20526;-69
2022/12/20 10:15:26;;;;;;;7.67;5.00;;;;;;;;;;5094350;28;20303;-69
2022/12/20 10:18:09;;;;;;;8.77;5.30;;;;;;;;;;5094576;28;20204;-69
2022/12/20 10:20:41;;;;;;;8.53;5.23;;;;;;;;;;5094894;28;20547;-69
2022/12/20 10:23:07;;;;;;;9.43;5.57;;;;;;;;;;5095660;28;20227;-70
2022/12/20 10:25:33;;;;;;;12.20;6.10;;;;;;;;;;5095978;28;20200;-69
2022/12/20 10:28:05;;;;;;;10.10;6.70;;;;;;;;;;5095164;28;20181;-70
2022/12/20 10:30:34;;;;;;;12.67;7.60;;;;;;;;;;5096220;28;20200;-71
2022/12/20 10:33:01;;;;;;;10.37;6.10;;;;;;;;;;5094389;28;20180;-69
2022/12/20 10:35:40;;;;;;;8.63;6.30;;;;;;;;;;5094193;28;20207;-68
2022/12/20 10:38:17;;;;;;;10.43;5.53;;;;;;;;;;5095060;28;20667;-68
2022/12/20 10:40:44;;;;;;;10.50;5.13;;;;;;;;;;5095009;28;20210;-68
2022/12/20 10:43:16;;;;;;;10.37;5.20;;;;;;;;;;5093470;28;20718;-68
2022/12/20 10:45:42;;;;;;;14.03;6.17;;;;;;;;;;5094727;28;20287;-68
2022/12/20 10:48:27;;;;;;;13.63;5.43;;;;;;;;;;5095306;28;20542;-67
2022/12/20 10:50:57;;;;;;;7.23;4.90;;;;;;;;;;5094877;28;20207;-68
2022/12/20 10:53:24;;;;;;;9.10;5.50;;;;;;;;;;5094726;28;20177;-68
2022/12/20 10:55:51;;;;;;;7.97;5.30;;;;;;;;;;5093302;28;20200;-68
2022/12/20 10:58:21;;;;;;;10.93;5.73;;;;;;;;;;5094646;28;20206;-68
2022/12/20 11:00:48;;;;;;;9.03;5.90;;;;;;;;;;5094543;28;20177;-67
2022/12/20 11:03:19;;;;;;;6.90;5.40;;;;;;;;;;5094997;28;20184;-68
2022/12/20 11:05:58;;;;;;;10.20;4.80;;;;;;;;;;5093290;28;20695;-67
2022/12/20 11:08:25;;;;;;;9.17;5.50;;;;;;;;;;5094764;28;20222;-65
2022/12/20 11:10:51;;;;;;;10.07;4.27;;;;;;;;;;5092823;28;20211;-67
2022/12/20 11:13:21;;;;;;;7.37;4.93;;;;;;;;;;5093092;28;20541;-67
2022/12/20 11:15:50;;;;;;;6.10;4.43;;;;;;;;;;5094226;28;20307;-68
2022/12/20 11:18:31;;;;;;;11.60;5.00;;;;;;;;;;5093225;28;20177;-67
2022/12/20 11:20:57;;;;;;;8.83;5.33;;;;;;;;;;5093091;28;20234;-65
2022/12/20 11:23:30;;;;;;;7.30;5.40;;;;;;;;;;5092930;28;20184;-65
2022/12/20 11:26:12;;;;;;;12.27;6.17;;;;;;;;;;5094004;28;20276;-68
2022/12/20 11:28:55;;;;;;;9.40;5.70;;;;;;;;;;5094224;28;20166;-65
2022/12/20 11:31:36;;;;;;;16.30;7.13;;;;;;;;;;5092998;28;20177;-67
2022/12/20 11:34:03;;;;;;;14.03;8.87;;;;;;;;;;5093072;28;20231;-68
2022/12/20 11:36:32;;;;;;;18.17;9.20;;;;;;;;;;5092650;28;20187;-68
2022/12/20 11:39:04;;;;;;;20.00;8.33;;;;;;;;;;5094448;28;20205;-68
2022/12/20 11:41:36;;;;;;;13.07;7.47;;;;;;;;;;5093447;28;20649;-69
2022/12/20 11:44:15;;;;;;;15.70;8.43;;;;;;;;;;5093022;28;20611;-67
2022/12/20 11:46:57;;;;;;;14.13;8.00;;;;;;;;;;5093957;28;20189;-68
2022/12/20 11:49:41;;;;;;;12.73;7.33;;;;;;;;;;5092339;28;20201;-66
2022/12/20 11:52:24;;;;;;;12.47;7.17;;;;;;;;;;5092661;28;20191;-68
2022/12/20 11:54:58;;;;;;;12.83;7.30;;;;;;;;;;5093739;28;20272;-67
2022/12/20 11:57:27;;;;;;;13.00;6.50;;;;;;;;;;5094796;28;20249;-67
2022/12/20 11:59:58;;;;;;;10.30;5.53;;;;;;;;;;5092208;28;20191;-67
2022/12/20 12:02:41;;;;;;;12.73;6.67;;;;;;;;;;5092420;28;20205;-67
2022/12/20 12:05:16;;;;;;;13.00;5.27;;;;;;;;;;5093919;28;20243;-66
2022/12/20 12:07:43;;;;;;;10.03;5.70;;;;;;;;;;5092808;28;20172;-67
2022/12/20 12:10:31;;;;;;;9.43;5.00;;;;;;;;;;5092714;28;20209;-67
2022/12/20 12:13:01;;;;;;;8.20;5.00;;;;;;;;;;5085748;28;20181;-66
2022/12/20 12:15:30;;;;;;;8.13;5.30;;;;;;;;;;5091788;28;20216;-67
2022/12/20 12:17:59;;;;;;;9.70;5.50;;;;;;;;;;5093579;28;20196;-67
2022/12/20 12:20:25;;;;;;;10.23;6.23;;;;;;;;;;5093459;28;20219;-67
2022/12/20 12:22:55;;;;;;;14.23;7.63;;;;;;;;;;5092046;28;20173;-67
2022/12/20 12:25:21;;;;;;;12.93;8.50;;;;;;;;;;5093432;28;20664;-67
2022/12/20 12:27:46;;;;;;;11.67;9.73;;;;;;;;;;5093746;28;20187;-67
2022/12/20 12:30:14;;;;;;;13.57;10.57;;;;;;;;;;5093433;28;20204;-69
2022/12/20 12:33:00;;;;;;;14.33;9.33;;;;;;;;;;5093866;28;20184;-67
2022/12/20 12:35:44;;;;;;;12.07;8.80;;;;;;;;;;5093179;28;20201;-67
2022/12/20 12:38:29;;;;;;;11.33;8.70;;;;;;;;;;5093660;28;20641;-66
2022/12/20 12:41:04;;;;;;;15.40;8.60;;;;;;;;;;5092206;28;20557;-68
2022/12/20 12:43:48;;;;;;;13.40;8.47;;;;;;;;;;5093292;28;20183;-67
2022/12/20 12:46:26;;;;;;;15.33;8.83;;;;;;;;;;5092138;28;20273;-67
2022/12/20 12:49:01;;;;;;;15.17;8.80;;;;;;;;;;5092489;28;20173;-66
2022/12/20 12:51:29;;;;;;;13.23;9.30;;;;;;;;;;5093629;28;20181;-67
2022/12/20 12:54:04;;;;;;;11.47;8.20;;;;;;;;;;5095905;28;20173;-67
2022/12/20 12:56:33;;;;;;;8.10;5.50;;;;;;;;;;5097238;28;20173;-67
2022/12/20 12:59:05;;;;;;;8.00;4.80;;;;;;;;;;5098469;28;20173;-66
2022/12/20 13:01:50;;;;;;;5.53;3.63;;;;;;;;;;5095734;28;20266;-66
2022/12/20 13:04:19;;;;;;;8.00;4.60;;;;;;;;;;5096925;28;20272;-66
2022/12/20 13:06:45;;;;;;;8.87;4.23;;;;;;;;;;5097059;28;20525;-68
2022/12/20 13:09:19;;;;;;;10.67;4.00;;;;;;;;;;5097575;28;20234;-67
2022/12/20 13:11:45;;;;;;;9.23;4.17;;;;;;;;;;5095407;28;20178;-68
2022/12/20 13:14:17;;;;;;;6.23;3.77;;;;;;;;;;5096643;28;20211;-67
2022/12/20 13:16:44;;;;;;;7.90;4.23;;;;;;;;;;5095306;28;20177;-67
2022/12/20 13:19:30;;;;;;;6.20;3.43;;;;;;;;;;5096418;28;20264;-65
2022/12/20 13:21:56;;;;;;;4.23;3.60;;;;;;;;;;5096426;28;20193;-67
2022/12/20 13:24:39;;;;;;;8.23;4.07;;;;;;;;;;5096384;28;20612;-69
2022/12/20 13:27:14;;;;;;;6.27;4.00;;;;;;;;;;5095229;28;20181;-67
2022/12/20 13:29:51;;;;;;;6.47;4.10;;;;;;;;;;5096580;28;20200;-69
2022/12/20 13:32:36;;;;;;;7.67;4.00;;;;;;;;;;5094847;28;20180;-69
2022/12/20 13:35:02;;;;;;;4.07;3.50;;;;;;;;;;5095955;28;20196;-70
2022/12/20 13:37:29;;;;;;;7.70;3.90;;;;;;;;;;5096254;28;20260;-68
2022/12/20 13:39:55;;;;;;;8.50;3.93;;;;;;;;;;5096007;28;20181;-70
2022/12/20 13:42:34;;;;;;;10.57;4.83;;;;;;;;;;5095951;28;20177;-68
2022/12/20 13:45:01;;;;;;;7.07;4.67;;;;;;;;;;5095792;28;20219;-70
2022/12/20 13:47:27;;;;;;;6.97;4.40;;;;;;;;;;5095866;28;20184;-69
2022/12/20 13:49:53;;;;;;;8.90;4.17;;;;;;;;;;5096000;28;20578;-70
2022/12/20 13:52:40;;;;;;;11.67;4.43;;;;;;;;;;5094428;28;20172;-70
2022/12/20 13:55:16;;;;;;;6.03;4.17;;;;;;;;;;5095978;28;20612;-67
2022/12/20 13:57:43;;;;;;;9.33;4.27;;;;;;;;;;5094478;28;20173;-68
2022/12/20 14:00:16;;;;;;;8.20;4.30;;;;;;;;;;5096203;28;20188;-70
2022/12/20 14:02:43;;;;;;;8.13;4.60;;;;;;;;;;5093924;28;20269;-68
2022/12/20 14:05:18;;;;;;;8.00;4.47;;;;;;;;;;5095501;28;20201;-70
2022/12/20 14:07:46;;;;;;;5.67;4.77;;;;;;;;;;5095429;28;20233;-71
2022/12/20 14:10:17;;;;;;;6.97;5.37;;;;;;;;;;5095481;28;20201;-70
2022/12/20 14:12:44;;;;;;;8.43;5.40;;;;;;;;;;5094169;28;20231;-70
2022/12/20 14:15:25;;;;;;;6.40;5.33;;;;;;;;;;5093765;28;20229;-68
2022/12/20 14:17:51;;;;;;;6.50;4.57;;;;;;;;;;5094024;28;20264;-69
2022/12/20 14:20:21;;;;;;;10.87;5.23;;;;;;;;;;5095133;28;20204;-72
2022/12/20 14:22:53;;;;;;;10.47;5.43;;;;;;;;;;5093834;28;20637;-69
2022/12/20 14:25:27;;;;;;;7.03;5.03;;;;;;;;;;5095056;28;20197;-71
2022/12/20 14:27:53;;;;;;;7.60;5.67;;;;;;;;;;5095014;28;20533;-68
2022/12/20 14:30:46;;;;;;;7.30;5.23;;;;;;;;;;5094997;28;20208;-70
2022/12/20 14:33:26;;;;;;;9.50;5.97;;;;;;;;;;5091980;28;20185;-71
2022/12/20 14:35:52;;;;;;;7.67;6.37;;;;;;;;;;5093600;28;20227;-70
2022/12/20 14:38:21;;;;;;;18.53;6.70;;;;;;;;;;5094890;28;20169;-69
2022/12/20 14:40:47;;;;;;;11.50;5.93;;;;;;;;;;5093743;28;20192;-69
2022/12/20 14:43:23;;;;;;;9.63;5.73;;;;;;;;;;5095274;28;20180;-71
2022/12/20 14:45:49;;;;;;;12.87;6.50;;;;;;;;;;5093271;28;20201;-71
2022/12/20 14:48:16;;;;;;;11.83;5.97;;;;;;;;;;5093949;28;20181;-74
2022/12/20 14:50:50;;;;;;;11.00;5.83;;;;;;;;;;5093593;28;20571;-70
2022/12/20 14:53:21;;;;;;;7.47;5.57;;;;;;;;;;5093349;28;20165;-69
2022/12/20 14:55:47;;;;;;;8.80;6.73;;;;;;;;;;5093165;28;20207;-69